Jacks Fork River (Missouri), Eminence (07066000)

StateMissouriCurrentGood (434 cfs)
RiverJacks Fork RiverFlood - The river is flooding. Obstacles can be treacherous or deadly. The river should be avoided at this stage for casual trips and definitely for the inexperienced. Trips should be attempted only with protective gear and equipment.Flood(none)
Updated2019-10-14 1:30 (1 hour ago)High - The river is high and potentially dangerous, especially for the young and / or inexperienced. Normal stream obstacles are sometimes difficult to navigate. Extended distances can be attempted, but canoe travel may not be advisable.High(none)
Discharge434 cfs (median: 161 cfs)Good - Conditions are ideal for a canoe or kayak. Boats typically will drag on fewer than one-quarter of riffles, if at all, and portages are unnecessary or rare. Normal float lengths can be attempted without a problem.Good200
Height3.03 feetLow - River is low but can still be floated. Some riffles are okay but most come with significant dragging and might need a portage. Float lengths should be reduced to accommodate low flow, dragging, and portages.Low(none)
TrendFalling (falling over 24 hours)Poor - River is too low to float comfortably. Most or all riffles will drag or must be portaged and some obstacles (such as slick shelf rock) cause undue problems. Avoid the river at this stage for casual paddling trips.Poor(none)
USGSExternal icon USGS Site for Eminence (07066000)LocationExternal icon Google Maps

Trending Data

Plot Image
ObservationHeightDischargeMaximum
Discharge
Minimum
Discharge
Mean
Discharge
P05P10P20P25P50
(Median)
P75P80P90P95
2019-10-14 01:30 3.03 434 2470 (1960) 73 (1957) 240 104 112 122 127 161 228 244 366 698
2019-10-14 00:30 3.04 439 2470 (1960) 73 (1957) 240 104 112 122 127 161 228 244 366 698
2019-10-13 23:30 3.05 443 903 (1950) 71 (1957) 211 104 112 122 127 161 234 257 352 593
2019-10-13 22:30 3.06 448 903 (1950) 71 (1957) 211 104 112 122 127 161 234 257 352 593
2019-10-13 21:30 3.07 453 903 (1950) 71 (1957) 211 104 112 122 127 161 234 257 352 593
2019-10-13 20:30 3.08 457 903 (1950) 71 (1957) 211 104 112 122 127 161 234 257 352 593
2019-10-13 19:30 3.09 462 903 (1950) 71 (1957) 211 104 112 122 127 161 234 257 352 593
2019-10-13 18:30 3.10 467 903 (1950) 71 (1957) 211 104 112 122 127 161 234 257 352 593
2019-10-13 17:30 3.12 476 903 (1950) 71 (1957) 211 104 112 122 127 161 234 257 352 593
2019-10-13 16:30 3.14 486 903 (1950) 71 (1957) 211 104 112 122 127 161 234 257 352 593
2019-10-13 15:30 3.16 496 903 (1950) 71 (1957) 211 104 112 122 127 161 234 257 352 593
2019-10-13 14:30 3.18 506 903 (1950) 71 (1957) 211 104 112 122 127 161 234 257 352 593
2019-10-13 13:30 3.19 510 903 (1950) 71 (1957) 211 104 112 122 127 161 234 257 352 593
2019-10-13 12:30 3.21 520 903 (1950) 71 (1957) 211 104 112 122 127 161 234 257 352 593
2019-10-13 11:30 3.23 530 903 (1950) 71 (1957) 211 104 112 122 127 161 234 257 352 593
2019-10-13 10:30 3.24 536 903 (1950) 71 (1957) 211 104 112 122 127 161 234 257 352 593
2019-10-13 09:30 3.27 551 903 (1950) 71 (1957) 211 104 112 122 127 161 234 257 352 593
2019-10-13 08:30 3.28 556 903 (1950) 71 (1957) 211 104 112 122 127 161 234 257 352 593
2019-10-13 07:30 3.30 566 903 (1950) 71 (1957) 211 104 112 122 127 161 234 257 352 593
2019-10-13 06:30 3.32 577 903 (1950) 71 (1957) 211 104 112 122 127 161 234 257 352 593
2019-10-13 05:30 3.33 582 903 (1950) 71 (1957) 211 104 112 122 127 161 234 257 352 593
2019-10-13 04:30 3.35 593 903 (1950) 71 (1957) 211 104 112 122 127 161 234 257 352 593
2019-10-13 03:30 3.38 609 903 (1950) 71 (1957) 211 104 112 122 127 161 234 257 352 593
2019-10-13 02:30 3.40 620 903 (1950) 71 (1957) 211 104 112 122 127 161 234 257 352 593
2019-10-13 01:30 3.42 630 903 (1950) 71 (1957) 211 104 112 122 127 161 234 257 352 593
2019-10-13 00:30 3.45 647 903 (1950) 71 (1957) 211 104 112 122 127 161 234 257 352 593
2019-10-12 23:30 3.48 664 903 (1950) 75 (1957) 198 103 112 121 124 160 210 236 325 385
2019-10-12 22:30 3.50 675 903 (1950) 75 (1957) 198 103 112 121 124 160 210 236 325 385
2019-10-12 21:30 3.53 692 903 (1950) 75 (1957) 198 103 112 121 124 160 210 236 325 385
2019-10-12 20:30 3.56 709 903 (1950) 75 (1957) 198 103 112 121 124 160 210 236 325 385
2019-10-12 19:30 3.59 726 903 (1950) 75 (1957) 198 103 112 121 124 160 210 236 325 385
2019-10-12 18:30 3.62 744 903 (1950) 75 (1957) 198 103 112 121 124 160 210 236 325 385
2019-10-12 17:30 3.66 771 903 (1950) 75 (1957) 198 103 112 121 124 160 210 236 325 385
2019-10-12 16:30 3.70 798 903 (1950) 75 (1957) 198 103 112 121 124 160 210 236 325 385
2019-10-12 15:30 3.74 825 903 (1950) 75 (1957) 198 103 112 121 124 160 210 236 325 385
2019-10-12 14:30 3.79 860 903 (1950) 75 (1957) 198 103 112 121 124 160 210 236 325 385
2019-10-12 13:30 3.83 888 903 (1950) 75 (1957) 198 103 112 121 124 160 210 236 325 385
2019-10-12 12:30 3.88 924 903 (1950) 75 (1957) 198 103 112 121 124 160 210 236 325 385
2019-10-12 11:30 3.93 961 903 (1950) 75 (1957) 198 103 112 121 124 160 210 236 325 385
2019-10-12 10:30 3.99 1010 903 (1950) 75 (1957) 198 103 112 121 124 160 210 236 325 385
2019-10-12 09:30 4.04 1040 903 (1950) 75 (1957) 198 103 112 121 124 160 210 236 325 385
2019-10-12 08:30 4.11 1100 903 (1950) 75 (1957) 198 103 112 121 124 160 210 236 325 385
2019-10-12 07:30 4.16 1140 903 (1950) 75 (1957) 198 103 112 121 124 160 210 236 325 385
2019-10-12 06:30 4.23 1190 903 (1950) 75 (1957) 198 103 112 121 124 160 210 236 325 385
2019-10-12 05:30 4.29 1240 903 (1950) 75 (1957) 198 103 112 121 124 160 210 236 325 385
2019-10-12 04:30 4.34 1290 903 (1950) 75 (1957) 198 103 112 121 124 160 210 236 325 385
2019-10-12 03:30 4.40 1340 903 (1950) 75 (1957) 198 103 112 121 124 160 210 236 325 385
2019-10-12 02:30 4.45 1380 903 (1950) 75 (1957) 198 103 112 121 124 160 210 236 325 385
2019-10-12 01:30 4.47 1400 903 (1950) 75 (1957) 198 103 112 121 124 160 210 236 325 385
2019-10-12 00:30 4.41 1350 903 (1950) 75 (1957) 198 103 112 121 124 160 210 236 325 385
2019-10-11 23:30 4.19 1160 1490 (2015) 75 (1957) 209 105 111 121 127 161 212 225 333 446
2019-10-11 22:30 3.56 709 1490 (2015) 75 (1957) 209 105 111 121 127 161 212 225 333 446
2019-10-11 21:30 2.93 389 1490 (2015) 75 (1957) 209 105 111 121 127 161 212 225 333 446
2019-10-11 20:30 2.90 376 1490 (2015) 75 (1957) 209 105 111 121 127 161 212 225 333 446
2019-10-11 19:30 2.90 376 1490 (2015) 75 (1957) 209 105 111 121 127 161 212 225 333 446
2019-10-11 18:30 2.89 372 1490 (2015) 75 (1957) 209 105 111 121 127 161 212 225 333 446
2019-10-11 17:30 2.87 363 1490 (2015) 75 (1957) 209 105 111 121 127 161 212 225 333 446
2019-10-11 16:30 2.86 359 1490 (2015) 75 (1957) 209 105 111 121 127 161 212 225 333 446
2019-10-11 15:30 2.82 342 1490 (2015) 75 (1957) 209 105 111 121 127 161 212 225 333 446
2019-10-11 14:30 2.80 334 1490 (2015) 75 (1957) 209 105 111 121 127 161 212 225 333 446
2019-10-11 13:30 2.83 346 1490 (2015) 75 (1957) 209 105 111 121 127 161 212 225 333 446
2019-10-11 12:30 2.80 334 1490 (2015) 75 (1957) 209 105 111 121 127 161 212 225 333 446
2019-10-11 11:30 2.79 330 1490 (2015) 75 (1957) 209 105 111 121 127 161 212 225 333 446
2019-10-11 10:30 2.77 322 1490 (2015) 75 (1957) 209 105 111 121 127 161 212 225 333 446
2019-10-11 09:30 2.77 322 1490 (2015) 75 (1957) 209 105 111 121 127 161 212 225 333 446
2019-10-11 08:30 2.76 318 1490 (2015) 75 (1957) 209 105 111 121 127 161 212 225 333 446
2019-10-11 07:30 2.75 314 1490 (2015) 75 (1957) 209 105 111 121 127 161 212 225 333 446
2019-10-11 06:30 2.75 314 1490 (2015) 75 (1957) 209 105 111 121 127 161 212 225 333 446
2019-10-11 05:30 2.72 302 1490 (2015) 75 (1957) 209 105 111 121 127 161 212 225 333 446
2019-10-11 04:30 2.65 275 1490 (2015) 75 (1957) 209 105 111 121 127 161 212 225 333 446
2019-10-11 03:30 2.56 243 1490 (2015) 75 (1957) 209 105 111 121 127 161 212 225 333 446
2019-10-11 02:30 2.47 212 1490 (2015) 75 (1957) 209 105 111 121 127 161 212 225 333 446
2019-10-11 01:30 2.48 215 1490 (2015) 75 (1957) 209 105 111 121 127 161 212 225 333 446
2019-10-11 00:30 2.48 215 1490 (2015) 75 (1957) 209 105 111 121 127 161 212 225 333 446
2019-10-10 23:30 2.48 215 2930 (2010) 73 (1957) 218 105 110 122 125 165 206 221 357 513
2019-10-10 22:30 2.44 202 2930 (2010) 73 (1957) 218 105 110 122 125 165 206 221 357 513
2019-10-10 21:30 2.47 212 2930 (2010) 73 (1957) 218 105 110 122 125 165 206 221 357 513
2019-10-10 20:30 2.47 212 2930 (2010) 73 (1957) 218 105 110 122 125 165 206 221 357 513
2019-10-10 19:30 2.46 208 2930 (2010) 73 (1957) 218 105 110 122 125 165 206 221 357 513
2019-10-10 18:30 2.46 208 2930 (2010) 73 (1957) 218 105 110 122 125 165 206 221 357 513
2019-10-10 17:30 2.47 212 2930 (2010) 73 (1957) 218 105 110 122 125 165 206 221 357 513
2019-10-10 16:30 2.47 212 2930 (2010) 73 (1957) 218 105 110 122 125 165 206 221 357 513
2019-10-10 15:30 2.47 212 2930 (2010) 73 (1957) 218 105 110 122 125 165 206 221 357 513
2019-10-10 14:30 2.47 212 2930 (2010) 73 (1957) 218 105 110 122 125 165 206 221 357 513
2019-10-10 13:30 2.47 212 2930 (2010) 73 (1957) 218 105 110 122 125 165 206 221 357 513
2019-10-10 12:30 2.47 212 2930 (2010) 73 (1957) 218 105 110 122 125 165 206 221 357 513
2019-10-10 11:30 2.47 212 2930 (2010) 73 (1957) 218 105 110 122 125 165 206 221 357 513
2019-10-10 10:30 2.47 212 2930 (2010) 73 (1957) 218 105 110 122 125 165 206 221 357 513
2019-10-10 09:30 2.48 215 2930 (2010) 73 (1957) 218 105 110 122 125 165 206 221 357 513
2019-10-10 08:30 2.48 215 2930 (2010) 73 (1957) 218 105 110 122 125 165 206 221 357 513
2019-10-10 07:30 2.48 215 2930 (2010) 73 (1957) 218 105 110 122 125 165 206 221 357 513
2019-10-10 06:30 2.48 215 2930 (2010) 73 (1957) 218 105 110 122 125 165 206 221 357 513
2019-10-10 05:30 2.48 215 2930 (2010) 73 (1957) 218 105 110 122 125 165 206 221 357 513
2019-10-10 04:30 2.48 215 2930 (2010) 73 (1957) 218 105 110 122 125 165 206 221 357 513
2019-10-10 03:30 2.48 215 2930 (2010) 73 (1957) 218 105 110 122 125 165 206 221 357 513
2019-10-10 02:30 2.48 215 2930 (2010) 73 (1957) 218 105 110 122 125 165 206 221 357 513
2019-10-10 01:30 2.48 215 2930 (2010) 73 (1957) 218 105 110 122 125 165 206 221 357 513
2019-10-10 00:30 2.48 215 2930 (2010) 73 (1957) 218 105 110 122 125 165 206 221 357 513
2019-10-09 22:30 2.48 215 2640 (2010) 73 (1957) 225 105 112 123 126 167 211 226 376 596
2019-10-09 21:30 2.47 212 2640 (2010) 73 (1957) 225 105 112 123 126 167 211 226 376 596
2019-10-09 20:30 2.47 212 2640 (2010) 73 (1957) 225 105 112 123 126 167 211 226 376 596
2019-10-09 19:30 2.47 212 2640 (2010) 73 (1957) 225 105 112 123 126 167 211 226 376 596
2019-10-09 18:30 2.47 212 2640 (2010) 73 (1957) 225 105 112 123 126 167 211 226 376 596
2019-10-09 17:30 2.48 215 2640 (2010) 73 (1957) 225 105 112 123 126 167 211 226 376 596
2019-10-09 16:30 2.47 212 2640 (2010) 73 (1957) 225 105 112 123 126 167 211 226 376 596
2019-10-09 15:30 2.49 218 2640 (2010) 73 (1957) 225 105 112 123 126 167 211 226 376 596
2019-10-09 14:30 2.46 208 2640 (2010) 73 (1957) 225 105 112 123 126 167 211 226 376 596
2019-10-09 13:30 2.49 218 2640 (2010) 73 (1957) 225 105 112 123 126 167 211 226 376 596
2019-10-09 12:30 2.49 218 2640 (2010) 73 (1957) 225 105 112 123 126 167 211 226 376 596
2019-10-09 11:30 2.49 218 2640 (2010) 73 (1957) 225 105 112 123 126 167 211 226 376 596
2019-10-09 10:30 2.50 222 2640 (2010) 73 (1957) 225 105 112 123 126 167 211 226 376 596
2019-10-09 09:30 2.50 222 2640 (2010) 73 (1957) 225 105 112 123 126 167 211 226 376 596
2019-10-09 08:30 2.50 222 2640 (2010) 73 (1957) 225 105 112 123 126 167 211 226 376 596
2019-10-09 07:30 2.50 222 2640 (2010) 73 (1957) 225 105 112 123 126 167 211 226 376 596
2019-10-09 06:30 2.50 222 2640 (2010) 73 (1957) 225 105 112 123 126 167 211 226 376 596
2019-10-09 05:30 2.51 225 2640 (2010) 73 (1957) 225 105 112 123 126 167 211 226 376 596
2019-10-09 04:30 2.50 222 2640 (2010) 73 (1957) 225 105 112 123 126 167 211 226 376 596
2019-10-09 03:30 2.51 225 2640 (2010) 73 (1957) 225 105 112 123 126 167 211 226 376 596
2019-10-09 02:30 2.50 222 2640 (2010) 73 (1957) 225 105 112 123 126 167 211 226 376 596
2019-10-09 01:30 2.51 225 2640 (2010) 73 (1957) 225 105 112 123 126 167 211 226 376 596
2019-10-09 00:30 2.51 225 2640 (2010) 73 (1957) 225 105 112 123 126 167 211 226 376 596
2019-10-08 23:30 2.50 222 2740 (1931) 73 (1957) 230 105 112 124 127 163 214 238 296 633
2019-10-08 22:30 2.51 225 2740 (1931) 73 (1957) 230 105 112 124 127 163 214 238 296 633
2019-10-08 21:30 2.51 225 2740 (1931) 73 (1957) 230 105 112 124 127 163 214 238 296 633
2019-10-08 20:30 2.51 225 2740 (1931) 73 (1957) 230 105 112 124 127 163 214 238 296 633
2019-10-08 19:30 2.51 225 2740 (1931) 73 (1957) 230 105 112 124 127 163 214 238 296 633
2019-10-08 18:30 2.52 229 2740 (1931) 73 (1957) 230 105 112 124 127 163 214 238 296 633
2019-10-08 17:30 2.52 229 2740 (1931) 73 (1957) 230 105 112 124 127 163 214 238 296 633
2019-10-08 16:30 2.52 229 2740 (1931) 73 (1957) 230 105 112 124 127 163 214 238 296 633
2019-10-08 15:30 2.53 232 2740 (1931) 73 (1957) 230 105 112 124 127 163 214 238 296 633
2019-10-08 14:30 2.53 232 2740 (1931) 73 (1957) 230 105 112 124 127 163 214 238 296 633
2019-10-08 13:30 2.50 222 2740 (1931) 73 (1957) 230 105 112 124 127 163 214 238 296 633
2019-10-08 12:30 2.52 229 2740 (1931) 73 (1957) 230 105 112 124 127 163 214 238 296 633
2019-10-08 11:30 2.55 239 2740 (1931) 73 (1957) 230 105 112 124 127 163 214 238 296 633
2019-10-08 10:30 2.55 239 2740 (1931) 73 (1957) 230 105 112 124 127 163 214 238 296 633
2019-10-08 08:30 2.58 250 2740 (1931) 73 (1957) 230 105 112 124 127 163 214 238 296 633
2019-10-08 07:30 2.59 253 2740 (1931) 73 (1957) 230 105 112 124 127 163 214 238 296 633
2019-10-08 06:30 2.59 253 2740 (1931) 73 (1957) 230 105 112 124 127 163 214 238 296 633
2019-10-08 05:30 2.59 253 2740 (1931) 73 (1957) 230 105 112 124 127 163 214 238 296 633
2019-10-08 04:30 2.59 253 2740 (1931) 73 (1957) 230 105 112 124 127 163 214 238 296 633
2019-10-08 03:30 2.59 253 2740 (1931) 73 (1957) 230 105 112 124 127 163 214 238 296 633
2019-10-08 02:30 2.59 253 2740 (1931) 73 (1957) 230 105 112 124 127 163 214 238 296 633
2019-10-08 01:30 2.58 250 2740 (1931) 73 (1957) 230 105 112 124 127 163 214 238 296 633
2019-10-08 00:30 2.58 250 2740 (1931) 73 (1957) 230 105 112 124 127 163 214 238 296 633
2019-10-07 23:30 2.58 250 2520 (1999) 73 (1957) 228 106 111 125 128 161 213 224 340 567
2019-10-07 22:30 2.58 250 2520 (1999) 73 (1957) 228 106 111 125 128 161 213 224 340 567
2019-10-07 21:30 2.58 250 2520 (1999) 73 (1957) 228 106 111 125 128 161 213 224 340 567
2019-10-07 20:30 2.57 246 2520 (1999) 73 (1957) 228 106 111 125 128 161 213 224 340 567
2019-10-07 19:30 2.57 246 2520 (1999) 73 (1957) 228 106 111 125 128 161 213 224 340 567
2019-10-07 18:30 2.57 246 2520 (1999) 73 (1957) 228 106 111 125 128 161 213 224 340 567
2019-10-07 17:30 2.57 246 2520 (1999) 73 (1957) 228 106 111 125 128 161 213 224 340 567
2019-10-07 16:30 2.58 250 2520 (1999) 73 (1957) 228 106 111 125 128 161 213 224 340 567
2019-10-07 15:30 2.58 250 2520 (1999) 73 (1957) 228 106 111 125 128 161 213 224 340 567
2019-10-07 14:30 2.58 250 2520 (1999) 73 (1957) 228 106 111 125 128 161 213 224 340 567
2019-10-07 13:30 2.59 253 2520 (1999) 73 (1957) 228 106 111 125 128 161 213 224 340 567
2019-10-07 12:30 2.58 250 2520 (1999) 73 (1957) 228 106 111 125 128 161 213 224 340 567
2019-10-07 11:30 2.59 253 2520 (1999) 73 (1957) 228 106 111 125 128 161 213 224 340 567
2019-10-07 10:30 2.59 253 2520 (1999) 73 (1957) 228 106 111 125 128 161 213 224 340 567
2019-10-07 09:30 2.59 253 2520 (1999) 73 (1957) 228 106 111 125 128 161 213 224 340 567
2019-10-07 08:30 2.59 253 2520 (1999) 73 (1957) 228 106 111 125 128 161 213 224 340 567
2019-10-07 07:30 2.58 250 2520 (1999) 73 (1957) 228 106 111 125 128 161 213 224 340 567
2019-10-07 06:30 2.59 253 2520 (1999) 73 (1957) 228 106 111 125 128 161 213 224 340 567
2019-10-07 05:30 2.58 250 2520 (1999) 73 (1957) 228 106 111 125 128 161 213 224 340 567
2019-10-07 04:30 2.59 253 2520 (1999) 73 (1957) 228 106 111 125 128 161 213 224 340 567
2019-10-07 03:30 2.59 253 2520 (1999) 73 (1957) 228 106 111 125 128 161 213 224 340 567
2019-10-07 02:30 2.58 250 2520 (1999) 73 (1957) 228 106 111 125 128 161 213 224 340 567
2019-10-07 01:30 2.59 253 2520 (1999) 73 (1957) 228 106 111 125 128 161 213 224 340 567
2019-10-07 00:30 2.58 250 2520 (1999) 73 (1957) 228 106 111 125 128 161 213 224 340 567

A total of 168 rows are displayed for years 1923 through 2018.

Trips for Jacks Fork River (Missouri), Eminence (07066000)

DateStartEndDistanceConditionDischargeHeightFishingDetails
Click for details2016-10-22 Eminence Shawnee Creek Total trip distance: 8.0 miles4.6 Good 241 2.23 Fair SMBSMB Fillmore, Allie
Fillmore, Brian
Fillmore, Jenny
Fillmore, Keith
Fillmore, Rebecca
Fillmore, Allie; Fillmore, Brian; Fillmore, Jenny; Fillmore, Keith; Fillmore, Rebecca
No notes for this trip<i>No notes for this trip</i> USGS Gauge Data:
Eminence (07066000)
Discharge: 241
Height: 2.23
<b>USGS Gauge Data:</b></br />Eminence (07066000)<br />Discharge: 241<br />Height: 2.23
Source: FillmoreSource: Fillmore
Click for details2016-10-23 Shawnee Creek Two Rivers Total trip distance: 8.0 miles3.4 Good 234 2.22 Fair SMBSMB Fillmore, Allie
Fillmore, Brian
Fillmore, Jenny
Fillmore, Keith
Fillmore, Rebecca
Fillmore, Allie; Fillmore, Brian; Fillmore, Jenny; Fillmore, Keith; Fillmore, Rebecca
No notes for this trip<i>No notes for this trip</i> USGS Gauge Data:
Eminence (07066000)
Discharge: 234
Height: 2.22
<b>USGS Gauge Data:</b></br />Eminence (07066000)<br />Discharge: 234<br />Height: 2.22
Source: FillmoreSource: Fillmore

A total of 2 rows are displayed.

Trip Summary for Jacks Fork River (Missouri), Eminence (07066000)

Miles8
Trips1
People5
Dates2
Years1
Months1
Rows2
Sources1

Condition Descriptions

Fishing Conditions

Fish Species

Notes

Classic Trip List

The classic River Trips application is still available for use. It is updated with the new system using a data retrofit. It is no longer maintained. The original River Trips application is no longer updated (as of 1 Dec 2016) but can be checked for errors or for the condition of the data before it was converted to the new system.